sensor_id;sensor_type;location;lat;lon;timestamp;P1;durP1;ratioP1;P2;durP2;ratioP2
44434;SDS011;30138;20.964;105.830;2023-09-19T00:03:27;34.80;;;20.83;;
44434;SDS011;30138;20.964;105.830;2023-09-19T00:14:50;27.42;;;16.80;;
44434;SDS011;30138;20.964;105.830;2023-09-19T00:20:16;28.17;;;17.25;;
44434;SDS011;30138;20.964;105.830;2023-09-19T00:25:24;27.73;;;18.50;;
44434;SDS011;30138;20.964;105.830;2023-09-19T00:30:29;27.85;;;18.33;;
44434;SDS011;30138;20.964;105.830;2023-09-19T00:41:59;30.67;;;19.65;;
44434;SDS011;30138;20.964;105.830;2023-09-19T00:47:22;32.80;;;20.27;;
44434;SDS011;30138;20.964;105.830;2023-09-19T00:58:29;32.80;;;21.88;;
44434;SDS011;30138;20.964;105.830;2023-09-19T01:03:53;31.85;;;21.40;;
44434;SDS011;30138;20.964;105.830;2023-09-19T01:09:03;34.45;;;21.00;;
44434;SDS011;30138;20.964;105.830;2023-09-19T01:14:13;29.90;;;21.58;;
44434;SDS011;30138;20.964;105.830;2023-09-19T01:19:38;27.40;;;21.20;;
44434;SDS011;30138;20.964;105.830;2023-09-19T01:25:39;30.30;;;21.80;;
44434;SDS011;30138;20.964;105.830;2023-09-19T01:31:12;28.67;;;22.40;;
44434;SDS011;30138;20.964;105.830;2023-09-19T01:42:04;31.10;;;22.08;;
44434;SDS011;30138;20.964;105.830;2023-09-19T01:52:52;25.13;;;20.55;;
44434;SDS011;30138;20.964;105.830;2023-09-19T01:58:21;30.47;;;20.43;;
44434;SDS011;30138;20.964;105.830;2023-09-19T02:03:48;24.08;;;19.48;;
44434;SDS011;30138;20.964;105.830;2023-09-19T02:09:12;25.58;;;19.88;;
44434;SDS011;30138;20.964;105.830;2023-09-19T02:14:19;26.70;;;19.48;;
44434;SDS011;30138;20.964;105.830;2023-09-19T02:31:44;26.15;;;21.55;;
44434;SDS011;30138;20.964;105.830;2023-09-19T02:36:53;24.20;;;20.90;;
44434;SDS011;30138;20.964;105.830;2023-09-19T02:41:59;27.00;;;21.10;;
44434;SDS011;30138;20.964;105.830;2023-09-19T02:47:06;27.63;;;21.95;;
44434;SDS011;30138;20.964;105.830;2023-09-19T02:52:15;24.98;;;21.30;;
44434;SDS011;30138;20.964;105.830;2023-09-19T02:57:57;28.70;;;23.33;;
44434;SDS011;30138;20.964;105.830;2023-09-19T03:03:21;29.98;;;22.77;;
44434;SDS011;30138;20.964;105.830;2023-09-19T03:08:32;28.23;;;22.83;;
44434;SDS011;30138;20.964;105.830;2023-09-19T03:14:15;26.83;;;22.48;;
44434;SDS011;30138;20.964;105.830;2023-09-19T03:25:59;26.75;;;22.10;;
44434;SDS011;30138;20.964;105.830;2023-09-19T03:36:34;25.33;;;20.85;;
44434;SDS011;30138;20.964;105.830;2023-09-19T03:42:18;27.08;;;21.13;;
44434;SDS011;30138;20.964;105.830;2023-09-19T03:47:27;25.85;;;20.95;;
44434;SDS011;30138;20.964;105.830;2023-09-19T03:52:37;24.33;;;20.55;;
44434;SDS011;30138;20.964;105.830;2023-09-19T03:57:49;25.35;;;19.40;;
44434;SDS011;30138;20.964;105.830;2023-09-19T04:03:14;21.92;;;18.08;;
44434;SDS011;30138;20.964;105.830;2023-09-19T04:08:37;24.77;;;18.40;;
44434;SDS011;30138;20.964;105.830;2023-09-19T04:13:44;20.88;;;17.02;;
44434;SDS011;30138;20.964;105.830;2023-09-19T04:18:52;21.48;;;16.65;;
44434;SDS011;30138;20.964;105.830;2023-09-19T04:24:14;18.33;;;15.90;;
44434;SDS011;30138;20.964;105.830;2023-09-19T04:29:38;17.95;;;15.63;;
44434;SDS011;30138;20.964;105.830;2023-09-19T04:40:28;18.65;;;15.07;;
44434;SDS011;30138;20.964;105.830;2023-09-19T04:45:36;19.60;;;15.75;;
44434;SDS011;30138;20.964;105.830;2023-09-19T04:50:43;18.20;;;16.15;;
44434;SDS011;30138;20.964;105.830;2023-09-19T04:55:53;16.95;;;15.15;;
44434;SDS011;30138;20.964;105.830;2023-09-19T05:01:01;17.98;;;14.93;;
44434;SDS011;30138;20.964;105.830;2023-09-19T05:06:42;18.23;;;14.98;;
44434;SDS011;30138;20.964;105.830;2023-09-19T05:23:46;18.20;;;15.43;;
44434;SDS011;30138;20.964;105.830;2023-09-19T05:28:54;18.80;;;16.42;;
44434;SDS011;30138;20.964;105.830;2023-09-19T05:40:00;19.73;;;15.05;;
44434;SDS011;30138;20.964;105.830;2023-09-19T05:45:43;18.05;;;14.98;;
44434;SDS011;30138;20.964;105.830;2023-09-19T05:51:09;19.60;;;15.32;;
44434;SDS011;30138;20.964;105.830;2023-09-19T05:56:34;17.10;;;15.30;;
44434;SDS011;30138;20.964;105.830;2023-09-19T06:07:08;20.52;;;15.55;;
44434;SDS011;30138;20.964;105.830;2023-09-19T06:12:37;21.92;;;15.48;;
44434;SDS011;30138;20.964;105.830;2023-09-19T06:18:20;17.38;;;15.55;;
44434;SDS011;30138;20.964;105.830;2023-09-19T06:29:28;19.77;;;15.80;;
44434;SDS011;30138;20.964;105.830;2023-09-19T06:34:35;19.02;;;15.27;;
44434;SDS011;30138;20.964;105.830;2023-09-19T06:39:47;18.70;;;16.70;;
44434;SDS011;30138;20.964;105.830;2023-09-19T06:45:15;18.23;;;16.50;;
44434;SDS011;30138;20.964;105.830;2023-09-19T06:50:43;19.75;;;15.93;;
44434;SDS011;30138;20.964;105.830;2023-09-19T06:56:10;19.60;;;16.42;;
44434;SDS011;30138;20.964;105.830;2023-09-19T07:01:16;18.67;;;16.40;;
44434;SDS011;30138;20.964;105.830;2023-09-19T07:06:23;19.17;;;16.20;;
44434;SDS011;30138;20.964;105.830;2023-09-19T07:12:24;17.58;;;15.77;;
44434;SDS011;30138;20.964;105.830;2023-09-19T07:17:48;18.30;;;15.63;;
44434;SDS011;30138;20.964;105.830;2023-09-19T07:22:55;17.70;;;15.77;;
44434;SDS011;30138;20.964;105.830;2023-09-19T07:28:21;18.30;;;16.42;;
44434;SDS011;30138;20.964;105.830;2023-09-19T07:33:27;16.80;;;14.38;;
44434;SDS011;30138;20.964;105.830;2023-09-19T07:38:52;16.95;;;15.13;;
44434;SDS011;30138;20.964;105.830;2023-09-19T07:44:18;17.95;;;14.40;;
44434;SDS011;30138;20.964;105.830;2023-09-19T07:54:51;17.83;;;15.52;;
44434;SDS011;30138;20.964;105.830;2023-09-19T08:00:01;16.55;;;14.85;;
44434;SDS011;30138;20.964;105.830;2023-09-19T08:10:36;16.58;;;14.98;;
44434;SDS011;30138;20.964;105.830;2023-09-19T08:22:01;17.25;;;15.38;;
44434;SDS011;30138;20.964;105.830;2023-09-19T08:32:50;16.15;;;14.55;;
44434;SDS011;30138;20.964;105.830;2023-09-19T08:38:01;18.25;;;16.33;;
44434;SDS011;30138;20.964;105.830;2023-09-19T08:49:29;17.40;;;14.87;;
44434;SDS011;30138;20.964;105.830;2023-09-19T08:55:20;17.75;;;15.85;;
44434;SDS011;30138;20.964;105.830;2023-09-19T09:00:50;18.17;;;15.80;;
44434;SDS011;30138;20.964;105.830;2023-09-19T09:11:59;18.17;;;15.80;;
44434;SDS011;30138;20.964;105.830;2023-09-19T09:22:32;20.00;;;15.80;;
44434;SDS011;30138;20.964;105.830;2023-09-19T09:28:30;19.52;;;15.40;;
44434;SDS011;30138;20.964;105.830;2023-09-19T09:34:13;19.58;;;15.18;;
44434;SDS011;30138;20.964;105.830;2023-09-19T09:39:31;17.60;;;15.40;;
44434;SDS011;30138;20.964;105.830;2023-09-19T09:44:37;19.83;;;15.43;;
44434;SDS011;30138;20.964;105.830;2023-09-19T09:49:47;17.50;;;15.23;;
44434;SDS011;30138;20.964;105.830;2023-09-19T09:55:20;18.33;;;15.13;;
44434;SDS011;30138;20.964;105.830;2023-09-19T10:00:26;18.88;;;14.95;;
44434;SDS011;30138;20.964;105.830;2023-09-19T10:05:44;21.52;;;15.60;;
44434;SDS011;30138;20.964;105.830;2023-09-19T10:16:29;19.52;;;14.90;;
44434;SDS011;30138;20.964;105.830;2023-09-19T10:21:37;22.15;;;14.68;;
44434;SDS011;30138;20.964;105.830;2023-09-19T10:32:28;21.85;;;14.18;;
44434;SDS011;30138;20.964;105.830;2023-09-19T10:37:36;15.27;;;13.00;;
44434;SDS011;30138;20.964;105.830;2023-09-19T10:42:46;19.90;;;11.43;;
44434;SDS011;30138;20.964;105.830;2023-09-19T10:53:00;21.77;;;12.02;;
44434;SDS011;30138;20.964;105.830;2023-09-19T10:58:14;16.83;;;11.30;;
44434;SDS011;30138;20.964;105.830;2023-09-19T11:03:58;15.10;;;11.75;;
44434;SDS011;30138;20.964;105.830;2023-09-19T11:27:16;17.83;;;11.95;;
44434;SDS011;30138;20.964;105.830;2023-09-19T11:44:31;19.27;;;12.45;;
44434;SDS011;30138;20.964;105.830;2023-09-19T11:50:00;15.90;;;11.43;;
44434;SDS011;30138;20.964;105.830;2023-09-19T12:07:00;18.88;;;12.00;;
44434;SDS011;30138;20.964;105.830;2023-09-19T12:12:41;16.13;;;11.57;;
44434;SDS011;30138;20.964;105.830;2023-09-19T12:17:54;19.13;;;12.10;;
44434;SDS011;30138;20.964;105.830;2023-09-19T12:23:39;17.83;;;11.77;;
44434;SDS011;30138;20.964;105.830;2023-09-19T12:29:15;19.73;;;12.23;;
44434;SDS011;30138;20.964;105.830;2023-09-19T12:34:40;22.88;;;12.35;;
44434;SDS011;30138;20.964;105.830;2023-09-19T12:40:07;20.08;;;12.65;;
44434;SDS011;30138;20.964;105.830;2023-09-19T12:45:34;18.08;;;11.65;;
44434;SDS011;30138;20.964;105.830;2023-09-19T12:56:26;21.48;;;12.98;;
44434;SDS011;30138;20.964;105.830;2023-09-19T13:12:50;20.95;;;12.15;;
44434;SDS011;30138;20.964;105.830;2023-09-19T13:18:10;21.98;;;11.48;;
44434;SDS011;30138;20.964;105.830;2023-09-19T13:29:31;19.65;;;10.85;;
44434;SDS011;30138;20.964;105.830;2023-09-19T13:34:47;20.27;;;11.27;;
44434;SDS011;30138;20.964;105.830;2023-09-19T13:40:33;20.80;;;10.82;;
44434;SDS011;30138;20.964;105.830;2023-09-19T13:45:42;17.02;;;9.57;;
44434;SDS011;30138;20.964;105.830;2023-09-19T13:50:49;20.33;;;9.93;;
44434;SDS011;30138;20.964;105.830;2023-09-19T13:55:55;18.30;;;9.02;;
44434;SDS011;30138;20.964;105.830;2023-09-19T14:01:04;20.02;;;9.40;;
44434;SDS011;30138;20.964;105.830;2023-09-19T14:06:25;16.13;;;8.68;;
44434;SDS011;30138;20.964;105.830;2023-09-19T14:11:34;18.63;;;9.57;;
44434;SDS011;30138;20.964;105.830;2023-09-19T14:16:43;17.20;;;9.45;;
44434;SDS011;30138;20.964;105.830;2023-09-19T14:21:50;14.35;;;9.02;;
44434;SDS011;30138;20.964;105.830;2023-09-19T14:26:58;16.50;;;9.73;;
44434;SDS011;30138;20.964;105.830;2023-09-19T14:32:07;24.02;;;11.10;;
44434;SDS011;30138;20.964;105.830;2023-09-19T14:37:14;23.13;;;11.18;;
44434;SDS011;30138;20.964;105.830;2023-09-19T14:42:21;20.70;;;13.02;;
44434;SDS011;30138;20.964;105.830;2023-09-19T14:47:29;23.48;;;13.80;;
44434;SDS011;30138;20.964;105.830;2023-09-19T14:52:37;28.67;;;15.57;;
44434;SDS011;30138;20.964;105.830;2023-09-19T14:57:43;33.45;;;18.02;;
44434;SDS011;30138;20.964;105.830;2023-09-19T15:02:57;32.88;;;19.92;;
44434;SDS011;30138;20.964;105.830;2023-09-19T15:08:03;33.28;;;20.42;;
44434;SDS011;30138;20.964;105.830;2023-09-19T15:13:09;42.00;;;22.15;;
44434;SDS011;30138;20.964;105.830;2023-09-19T15:18:18;38.53;;;22.42;;
44434;SDS011;30138;20.964;105.830;2023-09-19T15:23:24;38.67;;;21.85;;
44434;SDS011;30138;20.964;105.830;2023-09-19T15:28:30;38.50;;;21.52;;
44434;SDS011;30138;20.964;105.830;2023-09-19T15:33:39;35.63;;;20.70;;
44434;SDS011;30138;20.964;105.830;2023-09-19T15:44:12;40.65;;;18.38;;
44434;SDS011;30138;20.964;105.830;2023-09-19T15:49:23;36.03;;;17.75;;
44434;SDS011;30138;20.964;105.830;2023-09-19T15:54:29;32.95;;;17.55;;
44434;SDS011;30138;20.964;105.830;2023-09-19T15:59:35;35.13;;;17.63;;
44434;SDS011;30138;20.964;105.830;2023-09-19T16:04:44;43.70;;;18.58;;
44434;SDS011;30138;20.964;105.830;2023-09-19T16:09:50;42.20;;;19.73;;
44434;SDS011;30138;20.964;105.830;2023-09-19T16:14:56;46.70;;;21.42;;
44434;SDS011;30138;20.964;105.830;2023-09-19T16:20:04;47.95;;;21.23;;
44434;SDS011;30138;20.964;105.830;2023-09-19T16:25:13;36.03;;;18.27;;
44434;SDS011;30138;20.964;105.830;2023-09-19T16:30:20;36.33;;;17.35;;
44434;SDS011;30138;20.964;105.830;2023-09-19T16:35:28;28.10;;;14.35;;
44434;SDS011;30138;20.964;105.830;2023-09-19T16:40:35;27.48;;;14.10;;
44434;SDS011;30138;20.964;105.830;2023-09-19T16:45:51;27.27;;;13.70;;
44434;SDS011;30138;20.964;105.830;2023-09-19T16:51:01;26.15;;;14.02;;
44434;SDS011;30138;20.964;105.830;2023-09-19T16:56:10;27.67;;;12.57;;
44434;SDS011;30138;20.964;105.830;2023-09-19T17:01:19;27.33;;;12.77;;
44434;SDS011;30138;20.964;105.830;2023-09-19T17:06:27;18.33;;;11.98;;
44434;SDS011;30138;20.964;105.830;2023-09-19T17:11:33;22.08;;;12.13;;
44434;SDS011;30138;20.964;105.830;2023-09-19T17:16:40;19.45;;;11.88;;
44434;SDS011;30138;20.964;105.830;2023-09-19T17:21:47;24.20;;;12.38;;
44434;SDS011;30138;20.964;105.830;2023-09-19T17:26:54;27.35;;;12.85;;
44434;SDS011;30138;20.964;105.830;2023-09-19T17:32:01;24.20;;;12.13;;
44434;SDS011;30138;20.964;105.830;2023-09-19T17:37:10;19.05;;;11.55;;
44434;SDS011;30138;20.964;105.830;2023-09-19T17:42:16;19.27;;;11.85;;
44434;SDS011;30138;20.964;105.830;2023-09-19T17:47:22;16.42;;;10.95;;
44434;SDS011;30138;20.964;105.830;2023-09-19T17:52:31;22.17;;;11.80;;
44434;SDS011;30138;20.964;105.830;2023-09-19T17:57:36;20.42;;;11.60;;
44434;SDS011;30138;20.964;105.830;2023-09-19T18:02:43;23.50;;;11.63;;
44434;SDS011;30138;20.964;105.830;2023-09-19T18:07:51;19.83;;;12.30;;
44434;SDS011;30138;20.964;105.830;2023-09-19T18:12:58;24.95;;;13.23;;
44434;SDS011;30138;20.964;105.830;2023-09-19T18:18:04;20.17;;;12.93;;
44434;SDS011;30138;20.964;105.830;2023-09-19T18:23:14;24.95;;;13.18;;
44434;SDS011;30138;20.964;105.830;2023-09-19T18:28:20;22.52;;;12.27;;
44434;SDS011;30138;20.964;105.830;2023-09-19T18:33:27;19.38;;;12.32;;
44434;SDS011;30138;20.964;105.830;2023-09-19T18:38:38;20.55;;;13.25;;
44434;SDS011;30138;20.964;105.830;2023-09-19T18:43:46;21.70;;;12.57;;
44434;SDS011;30138;20.964;105.830;2023-09-19T18:48:52;19.88;;;12.85;;
44434;SDS011;30138;20.964;105.830;2023-09-19T18:54:00;20.60;;;12.70;;
44434;SDS011;30138;20.964;105.830;2023-09-19T18:59:07;21.42;;;13.50;;
44434;SDS011;30138;20.964;105.830;2023-09-19T19:04:14;23.02;;;14.98;;
44434;SDS011;30138;20.964;105.830;2023-09-19T19:09:23;23.33;;;16.50;;
44434;SDS011;30138;20.964;105.830;2023-09-19T19:14:29;30.23;;;19.10;;
44434;SDS011;30138;20.964;105.830;2023-09-19T19:19:35;30.77;;;20.20;;
44434;SDS011;30138;20.964;105.830;2023-09-19T19:24:45;34.70;;;22.17;;
44434;SDS011;30138;20.964;105.830;2023-09-19T19:30:00;32.75;;;23.23;;
44434;SDS011;30138;20.964;105.830;2023-09-19T19:35:30;33.05;;;21.98;;
44434;SDS011;30138;20.964;105.830;2023-09-19T19:40:39;37.90;;;23.33;;
44434;SDS011;30138;20.964;105.830;2023-09-19T19:45:52;32.20;;;22.95;;
44434;SDS011;30138;20.964;105.830;2023-09-19T19:51:00;36.85;;;22.38;;
44434;SDS011;30138;20.964;105.830;2023-09-19T20:01:45;33.08;;;22.27;;
44434;SDS011;30138;20.964;105.830;2023-09-19T20:06:52;33.10;;;22.45;;
44434;SDS011;30138;20.964;105.830;2023-09-19T20:17:54;38.08;;;24.42;;
44434;SDS011;30138;20.964;105.830;2023-09-19T20:23:01;36.55;;;25.08;;
44434;SDS011;30138;20.964;105.830;2023-09-19T20:28:09;42.08;;;26.67;;
44434;SDS011;30138;20.964;105.830;2023-09-19T20:33:15;40.38;;;25.48;;
44434;SDS011;30138;20.964;105.830;2023-09-19T20:38:21;37.72;;;24.23;;
44434;SDS011;30138;20.964;105.830;2023-09-19T20:43:28;35.08;;;24.38;;
44434;SDS011;30138;20.964;105.830;2023-09-19T20:48:45;35.88;;;24.40;;
44434;SDS011;30138;20.964;105.830;2023-09-19T20:54:42;37.53;;;25.05;;
44434;SDS011;30138;20.964;105.830;2023-09-19T21:05:38;37.22;;;24.40;;
44434;SDS011;30138;20.964;105.830;2023-09-19T21:10:47;40.60;;;25.15;;
44434;SDS011;30138;20.964;105.830;2023-09-19T21:22:09;33.63;;;23.13;;
44434;SDS011;30138;20.964;105.830;2023-09-19T21:32:37;33.63;;;20.40;;
44434;SDS011;30138;20.964;105.830;2023-09-19T21:37:47;31.52;;;20.92;;
44434;SDS011;30138;20.964;105.830;2023-09-19T21:42:53;33.28;;;20.05;;
44434;SDS011;30138;20.964;105.830;2023-09-19T21:48:13;35.03;;;20.52;;
44434;SDS011;30138;20.964;105.830;2023-09-19T21:53:44;28.80;;;19.55;;
44434;SDS011;30138;20.964;105.830;2023-09-19T21:58:51;33.17;;;20.02;;
44434;SDS011;30138;20.964;105.830;2023-09-19T22:03:59;30.27;;;19.45;;
44434;SDS011;30138;20.964;105.830;2023-09-19T22:09:06;31.17;;;20.13;;
44434;SDS011;30138;20.964;105.830;2023-09-19T22:14:12;32.05;;;19.65;;
44434;SDS011;30138;20.964;105.830;2023-09-19T22:19:21;30.15;;;19.08;;
44434;SDS011;30138;20.964;105.830;2023-09-19T22:24:27;37.08;;;20.67;;
44434;SDS011;30138;20.964;105.830;2023-09-19T22:29:32;35.45;;;20.63;;
44434;SDS011;30138;20.964;105.830;2023-09-19T22:34:40;30.77;;;19.35;;
44434;SDS011;30138;20.964;105.830;2023-09-19T22:39:46;33.03;;;20.27;;
44434;SDS011;30138;20.964;105.830;2023-09-19T22:44:53;35.35;;;20.35;;
44434;SDS011;30138;20.964;105.830;2023-09-19T22:50:01;39.15;;;23.33;;
44434;SDS011;30138;20.964;105.830;2023-09-19T22:55:09;38.28;;;25.67;;
44434;SDS011;30138;20.964;105.830;2023-09-19T23:00:22;36.78;;;27.67;;
44434;SDS011;30138;20.964;105.830;2023-09-19T23:05:35;38.33;;;28.27;;
44434;SDS011;30138;20.964;105.830;2023-09-19T23:10:44;38.55;;;27.67;;
44434;SDS011;30138;20.964;105.830;2023-09-19T23:15:53;39.38;;;25.92;;
44434;SDS011;30138;20.964;105.830;2023-09-19T23:21:01;37.20;;;25.15;;
44434;SDS011;30138;20.964;105.830;2023-09-19T23:26:17;37.92;;;26.52;;
44434;SDS011;30138;20.964;105.830;2023-09-19T23:31:24;40.50;;;27.75;;
44434;SDS011;30138;20.964;105.830;2023-09-19T23:36:32;39.97;;;26.63;;
44434;SDS011;30138;20.964;105.830;2023-09-19T23:41:40;38.75;;;26.15;;
44434;SDS011;30138;20.964;105.830;2023-09-19T23:46:46;34.65;;;24.35;;
44434;SDS011;30138;20.964;105.830;2023-09-19T23:51:58;39.53;;;25.00;;
44434;SDS011;30138;20.964;105.830;2023-09-19T23:57:04;38.10;;;24.08;;
